createdAt,value
2023-01-20T00:01:28.451Z,16.45
2023-01-20T00:04:06.901Z,15.70
2023-01-20T00:06:45.009Z,16.45
2023-01-20T00:09:18.234Z,16.50
2023-01-20T00:12:02.664Z,17.50
2023-01-20T00:14:43.128Z,17.65
2023-01-20T00:17:21.346Z,18.92
2023-01-20T00:19:58.951Z,19.73
2023-01-20T00:22:34.328Z,19.13
2023-01-20T00:25:09.546Z,20.33
2023-01-20T00:27:50.466Z,20.02
2023-01-20T00:30:34.298Z,20.27
2023-01-20T00:33:15.155Z,20.38
2023-01-20T00:35:52.916Z,17.80
2023-01-20T00:38:29.565Z,16.73
2023-01-20T00:41:07.288Z,16.55
2023-01-20T00:43:53.286Z,17.73
2023-01-20T00:46:29.207Z,15.63
2023-01-20T00:49:06.960Z,16.15
2023-01-20T00:51:55.543Z,15.82
2023-01-20T00:54:33.910Z,17.02
2023-01-20T00:57:14.558Z,16.80
2023-01-20T01:00:03.871Z,16.55
2023-01-20T01:02:50.703Z,16.30
2023-01-20T01:05:32.187Z,16.02
2023-01-20T01:08:16.354Z,17.15
2023-01-20T01:10:55.042Z,16.63
2023-01-20T01:13:38.574Z,17.00
2023-01-20T01:16:19.434Z,17.30
2023-01-20T01:19:06.938Z,16.15
2023-01-20T01:21:50.326Z,17.05
2023-01-20T01:24:32.312Z,17.55
2023-01-20T01:27:09.697Z,17.50
2023-01-20T01:29:41.555Z,17.80
2023-01-20T01:32:21.915Z,17.65
2023-01-20T01:34:56.557Z,18.15
2023-01-20T01:37:33.842Z,18.17
2023-01-20T01:40:13.643Z,17.40
2023-01-20T01:42:49.406Z,17.98
2023-01-20T01:45:33.250Z,16.95
2023-01-20T01:48:14.201Z,16.52
2023-01-20T01:51:41.757Z,17.45
2023-01-20T01:54:38.785Z,16.58
2023-01-20T01:59:52.331Z,18.27
2023-01-20T02:02:27.517Z,17.45
2023-01-20T02:05:11.728Z,18.77
2023-01-20T02:07:52.016Z,18.92
2023-01-20T02:10:24.283Z,21.02
2023-01-20T02:13:17.103Z,18.63
2023-01-20T02:16:02.254Z,18.20
2023-01-20T02:19:07.624Z,18.67
2023-01-20T02:21:55.480Z,15.80
2023-01-20T02:24:54.478Z,18.20
2023-01-20T02:27:33.595Z,18.48
2023-01-20T02:30:22.662Z,18.40
2023-01-20T02:33:26.974Z,19.75
2023-01-20T02:39:01.153Z,18.35
2023-01-20T02:42:08.342Z,16.73
2023-01-20T02:44:59.437Z,18.50
2023-01-20T02:47:51.569Z,16.83
2023-01-20T02:50:43.368Z,17.67
2023-01-20T02:53:26.570Z,16.85
2023-01-20T02:56:04.953Z,17.88
2023-01-20T02:58:55.662Z,18.20
2023-01-20T03:01:36.717Z,16.55
2023-01-20T03:04:14.175Z,18.40
2023-01-20T03:06:54.148Z,18.05
2023-01-20T03:09:33.180Z,17.15
2023-01-20T03:12:21.227Z,16.52
2023-01-20T03:14:55.515Z,16.33
2023-01-20T03:17:37.574Z,18.58
2023-01-20T03:20:12.856Z,17.00
2023-01-20T03:22:47.889Z,16.50
2023-01-20T03:25:28.159Z,16.65
2023-01-20T03:28:06.229Z,17.25
2023-01-20T03:30:41.950Z,16.98
2023-01-20T03:33:20.534Z,16.70
2023-01-20T03:35:54.828Z,17.08
2023-01-20T03:38:30.063Z,16.25
2023-01-20T03:41:48.568Z,17.95
2023-01-20T03:44:56.008Z,17.55
2023-01-20T03:47:53.507Z,15.90
2023-01-20T03:50:34.803Z,15.90
2023-01-20T03:53:45.531Z,16.90
2023-01-20T03:56:32.968Z,18.58
2023-01-20T03:59:10.048Z,17.98
2023-01-20T04:01:44.721Z,17.90
2023-01-20T04:04:24.356Z,18.17
2023-01-20T04:07:02.723Z,17.70
2023-01-20T04:09:38.241Z,18.00
2023-01-20T04:12:13.285Z,18.48
2023-01-20T04:15:00.523Z,18.27
2023-01-20T04:17:33.974Z,15.95
2023-01-20T04:23:00.027Z,16.67
2023-01-20T04:25:39.936Z,17.88
2023-01-20T04:28:14.986Z,18.30
2023-01-20T04:30:55.715Z,17.60
2023-01-20T04:33:33.959Z,18.17
2023-01-20T04:36:08.972Z,17.95
2023-01-20T04:38:47.484Z,17.50
2023-01-20T04:41:26.451Z,18.25
2023-01-20T04:44:02.046Z,19.67
2023-01-20T04:46:32.280Z,18.00
2023-01-20T04:49:10.413Z,18.75
2023-01-20T04:51:49.111Z,18.58
2023-01-20T04:54:21.621Z,18.98
2023-01-20T04:56:54.627Z,19.93
2023-01-20T04:59:33.180Z,19.63
2023-01-20T05:02:07.035Z,19.95
2023-01-20T05:04:47.418Z,18.90
2023-01-20T05:07:29.481Z,19.38
2023-01-20T05:10:01.903Z,20.77
2023-01-20T05:12:34.181Z,21.58
2023-01-20T05:15:07.925Z,20.45
2023-01-20T05:17:45.734Z,21.85
2023-01-20T05:20:27.185Z,22.95
2023-01-20T05:23:10.984Z,23.75
2023-01-20T05:25:56.101Z,22.40
2023-01-20T05:28:30.217Z,23.08
2023-01-20T05:31:02.835Z,23.25
2023-01-20T05:33:38.522Z,24.45
2023-01-20T05:36:14.900Z,23.58
2023-01-20T05:38:52.800Z,26.48
2023-01-20T05:41:30.721Z,24.92
2023-01-20T05:44:02.692Z,24.70
2023-01-20T05:46:39.845Z,26.17
2023-01-20T05:49:14.753Z,26.48
2023-01-20T05:51:58.206Z,25.48
2023-01-20T05:54:38.687Z,25.85
2023-01-20T05:57:19.808Z,26.58
2023-01-20T05:59:57.996Z,28.20
2023-01-20T06:02:36.454Z,27.17
2023-01-20T06:05:20.520Z,30.17
2023-01-20T06:07:57.540Z,30.75
2023-01-20T06:10:35.779Z,31.73
2023-01-20T06:13:16.700Z,27.65
2023-01-20T06:15:55.226Z,26.50
2023-01-20T06:18:30.580Z,26.95
2023-01-20T06:21:04.187Z,25.05
2023-01-20T06:26:20.602Z,23.55
2023-01-20T06:29:07.183Z,22.05
2023-01-20T06:31:42.021Z,23.85
2023-01-20T06:34:25.823Z,24.95
2023-01-20T06:39:42.765Z,24.35
2023-01-20T06:42:24.415Z,27.70
2023-01-20T06:45:00.164Z,24.52
2023-01-20T06:47:40.727Z,25.30
2023-01-20T06:50:19.252Z,27.38
2023-01-20T06:53:10.074Z,26.45
2023-01-20T06:55:53.393Z,27.42
2023-01-20T06:58:30.314Z,27.38
2023-01-20T07:01:24.217Z,25.95
2023-01-20T07:06:59.921Z,23.55
2023-01-20T07:09:38.492Z,24.20
2023-01-20T07:12:12.753Z,25.42
2023-01-20T07:14:46.651Z,26.08
2023-01-20T07:17:25.068Z,23.92
2023-01-20T07:20:05.602Z,26.30
2023-01-20T07:22:47.290Z,25.17
2023-01-20T07:25:19.823Z,24.67
2023-01-20T07:27:57.970Z,25.60
2023-01-20T07:30:38.366Z,25.73
2023-01-20T07:33:15.740Z,22.60
2023-01-20T07:36:02.501Z,23.88
2023-01-20T07:38:41.667Z,23.30
2023-01-20T07:41:27.926Z,23.35
2023-01-20T07:44:05.511Z,24.63
2023-01-20T07:46:34.987Z,22.80
2023-01-20T07:49:12.213Z,25.98
2023-01-20T07:51:53.660Z,32.63
2023-01-20T07:54:42.007Z,31.15
2023-01-20T07:57:25.077Z,28.33
2023-01-20T08:00:09.061Z,25.88
2023-01-20T08:02:42.737Z,28.63
2023-01-20T08:05:23.999Z,26.85
2023-01-20T08:08:04.480Z,30.10
2023-01-20T08:10:47.870Z,34.13
2023-01-20T08:13:22.675Z,26.42
2023-01-20T08:16:01.397Z,29.77
2023-01-20T08:18:39.696Z,29.23
2023-01-20T08:21:20.486Z,25.63
2023-01-20T08:24:06.757Z,25.65
2023-01-20T08:26:44.917Z,25.13
2023-01-20T08:29:16.879Z,24.70
2023-01-20T08:31:44.849Z,26.33
2023-01-20T08:34:18.938Z,25.73
2023-01-20T08:36:56.645Z,27.33
2023-01-20T08:39:35.548Z,29.85
2023-01-20T08:42:08.847Z,24.83
2023-01-20T08:44:38.329Z,27.98
2023-01-20T08:47:21.026Z,24.02
2023-01-20T08:49:54.127Z,28.17
2023-01-20T08:52:35.541Z,30.88
2023-01-20T08:55:13.592Z,30.65
2023-01-20T08:57:49.887Z,27.17
2023-01-20T09:00:28.373Z,26.48
2023-01-20T09:03:03.453Z,26.30
2023-01-20T09:05:50.196Z,29.27
2023-01-20T09:08:27.140Z,26.70
2023-01-20T09:11:10.936Z,25.38
2023-01-20T09:16:20.748Z,24.75
2023-01-20T09:19:03.267Z,32.33
2023-01-20T09:21:41.215Z,28.30
2023-01-20T09:24:30.330Z,27.73
2023-01-20T09:27:19.742Z,24.85
2023-01-20T09:29:55.059Z,25.85
2023-01-20T09:32:36.246Z,25.38
2023-01-20T09:35:11.783Z,25.90
2023-01-20T09:38:05.252Z,25.67
2023-01-20T09:41:43.629Z,28.35
2023-01-20T09:44:35.366Z,26.15
2023-01-20T09:47:20.738Z,26.48
2023-01-20T09:50:47.340Z,28.10
2023-01-20T09:53:48.742Z,24.25
2023-01-20T09:56:25.033Z,27.52
2023-01-20T09:59:21.211Z,30.38
2023-01-20T10:02:03.538Z,28.20
2023-01-20T10:05:07.877Z,26.02
2023-01-20T10:10:30.609Z,22.92
2023-01-20T10:13:11.513Z,23.63
2023-01-20T10:16:12.548Z,22.23
2023-01-20T10:18:58.366Z,24.48
2023-01-20T10:21:53.140Z,26.52
2023-01-20T10:24:29.599Z,26.02
2023-01-20T10:27:13.488Z,23.98
2023-01-20T10:32:42.293Z,22.65
2023-01-20T10:35:27.635Z,24.05
2023-01-20T10:38:09.355Z,22.40
2023-01-20T10:41:03.468Z,23.77
2023-01-20T10:46:30.450Z,20.98
2023-01-20T10:49:53.639Z,22.08
2023-01-20T10:52:39.005Z,26.15
2023-01-20T10:55:40.899Z,25.10
2023-01-20T10:58:26.768Z,25.20
2023-01-20T11:00:55.730Z,25.83
2023-01-20T11:03:42.792Z,26.45
2023-01-20T11:06:47.301Z,30.85
2023-01-20T11:09:49.747Z,24.80
2023-01-20T11:12:34.291Z,22.75
2023-01-20T11:15:36.119Z,21.92
2023-01-20T11:18:18.199Z,20.05
2023-01-20T11:20:56.377Z,24.58
2023-01-20T11:23:52.434Z,22.17
2023-01-20T11:26:35.734Z,28.45
2023-01-20T11:29:20.235Z,28.42
2023-01-20T11:32:00.905Z,25.15
2023-01-20T11:34:38.981Z,25.27
2023-01-20T11:37:11.570Z,25.05
2023-01-20T11:40:05.698Z,25.58
2023-01-20T11:42:50.168Z,25.15
2023-01-20T11:45:38.992Z,25.65
2023-01-20T11:48:18.921Z,25.08
2023-01-20T11:50:59.269Z,23.35
2023-01-20T11:53:37.766Z,26.08
2023-01-20T11:56:29.755Z,26.42
2023-01-20T11:59:06.497Z,25.50
2023-01-20T12:01:57.918Z,25.10
2023-01-20T12:04:59.116Z,27.30
2023-01-20T12:07:32.528Z,29.50
2023-01-20T12:10:27.621Z,30.33
2023-01-20T12:13:26.854Z,25.90
2023-01-20T12:16:09.504Z,28.13
2023-01-20T12:19:02.073Z,22.27
2023-01-20T12:21:51.929Z,25.15
2023-01-20T12:25:12.040Z,22.00
2023-01-20T12:28:24.204Z,14.73
2023-01-20T12:31:08.479Z,14.75
2023-01-20T12:33:54.430Z,14.15
2023-01-20T12:37:02.235Z,14.73
2023-01-20T12:40:08.079Z,14.10
2023-01-20T12:43:19.191Z,13.95
2023-01-20T12:46:28.357Z,14.02
2023-01-20T12:49:28.317Z,15.43
2023-01-20T12:52:01.112Z,15.75
2023-01-20T12:55:12.547Z,16.13
2023-01-20T12:58:00.439Z,18.27
2023-01-20T13:01:18.979Z,19.83
2023-01-20T13:04:09.433Z,19.73
2023-01-20T13:07:04.721Z,18.17
2023-01-20T13:10:07.533Z,18.25
2023-01-20T13:13:01.955Z,21.50
2023-01-20T13:15:46.050Z,19.90
2023-01-20T13:18:43.485Z,19.08
2023-01-20T13:21:21.558Z,17.35
2023-01-20T13:24:08.933Z,19.85
2023-01-20T13:26:45.000Z,22.70
2023-01-20T13:29:50.915Z,21.63
2023-01-20T13:32:48.896Z,22.73
2023-01-20T13:35:32.538Z,24.98
2023-01-20T13:38:08.954Z,24.30
2023-01-20T13:40:54.870Z,23.08
2023-01-20T13:43:52.560Z,23.02
2023-01-20T13:46:29.169Z,23.25
2023-01-20T13:49:32.297Z,25.15
2023-01-20T13:52:17.437Z,25.10
2023-01-20T13:54:57.804Z,28.95
2023-01-20T13:57:34.207Z,29.35
2023-01-20T14:00:24.076Z,29.38
2023-01-20T14:03:18.278Z,30.58
2023-01-20T14:06:08.440Z,31.45
2023-01-20T14:08:45.951Z,31.38
2023-01-20T14:11:30.420Z,31.17
2023-01-20T14:14:01.986Z,30.42
2023-01-20T14:16:45.019Z,29.20
2023-01-20T14:19:30.026Z,28.13
2023-01-20T14:22:19.782Z,27.45
2023-01-20T14:24:57.464Z,28.45
2023-01-20T14:27:44.629Z,30.38
2023-01-20T14:30:23.760Z,31.25
2023-01-20T14:33:02.192Z,32.10
2023-01-20T14:35:39.487Z,33.97
2023-01-20T14:38:30.019Z,34.47
2023-01-20T14:41:04.916Z,31.35
2023-01-20T14:43:48.023Z,33.63
2023-01-20T14:46:29.453Z,25.45
2023-01-20T14:49:16.429Z,33.60
2023-01-20T14:51:57.729Z,36.72
2023-01-20T14:54:52.160Z,37.05
2023-01-20T14:57:32.673Z,49.20
2023-01-20T15:00:22.475Z,35.15
2023-01-20T15:03:11.256Z,47.50
2023-01-20T15:06:16.732Z,35.55
2023-01-20T15:09:06.250Z,44.42
2023-01-20T15:11:46.058Z,55.53
2023-01-20T15:14:24.803Z,41.38
2023-01-20T15:17:28.064Z,36.80
2023-01-20T15:20:08.695Z,49.83
2023-01-20T15:22:51.321Z,40.22
2023-01-20T15:25:32.805Z,44.33
2023-01-20T15:28:43.948Z,43.97
2023-01-20T15:31:23.247Z,42.13
2023-01-20T15:34:09.313Z,41.90
2023-01-20T15:36:45.608Z,61.95
2023-01-20T15:39:33.310Z,75.47
2023-01-20T15:42:25.488Z,62.58
2023-01-20T15:45:07.462Z,39.90
2023-01-20T15:47:45.865Z,43.20
2023-01-20T15:50:37.631Z,31.15
2023-01-20T15:53:21.022Z,33.30
2023-01-20T15:56:03.907Z,34.20
2023-01-20T15:58:39.530Z,36.47
2023-01-20T16:01:18.762Z,37.22
2023-01-20T16:04:02.927Z,36.20
2023-01-20T16:06:48.255Z,33.22
2023-01-20T16:09:46.365Z,32.35
2023-01-20T16:12:18.630Z,32.10
2023-01-20T16:15:09.514Z,35.65
2023-01-20T16:17:45.084Z,34.42
2023-01-20T16:20:31.217Z,34.75
2023-01-20T16:23:05.709Z,36.20
2023-01-20T16:25:39.079Z,53.53
2023-01-20T16:28:24.560Z,35.50
2023-01-20T16:31:02.490Z,37.05
2023-01-20T16:33:39.831Z,41.70
2023-01-20T16:36:26.737Z,35.60
2023-01-20T16:39:02.120Z,38.00
2023-01-20T16:41:50.017Z,31.73
2023-01-20T16:44:30.650Z,29.90
2023-01-20T16:47:12.949Z,29.63
2023-01-20T16:50:00.099Z,30.10
2023-01-20T16:52:33.158Z,32.00
2023-01-20T16:55:13.589Z,36.92
2023-01-20T16:57:48.407Z,40.05
2023-01-20T17:00:26.531Z,39.75
2023-01-20T17:03:06.550Z,39.05
2023-01-20T17:05:45.482Z,33.65
2023-01-20T17:08:18.649Z,38.15
2023-01-20T17:11:03.284Z,36.50
2023-01-20T17:13:46.303Z,35.05
2023-01-20T17:16:24.529Z,42.33
2023-01-20T17:19:05.166Z,38.00
2023-01-20T17:21:44.308Z,42.90
2023-01-20T17:24:24.423Z,47.97
2023-01-20T17:26:58.712Z,36.15
2023-01-20T17:29:36.928Z,39.40
2023-01-20T17:32:16.951Z,34.92
2023-01-20T17:34:53.911Z,33.35
2023-01-20T17:37:29.460Z,37.15
2023-01-20T17:40:11.310Z,46.95
2023-01-20T17:42:46.827Z,40.70
2023-01-20T17:45:22.105Z,33.72
2023-01-20T17:48:04.605Z,38.75
2023-01-20T17:50:37.956Z,33.15
2023-01-20T17:53:13.016Z,40.35
2023-01-20T17:56:10.885Z,35.85
2023-01-20T17:58:52.116Z,33.67
2023-01-20T18:01:34.870Z,29.38
2023-01-20T18:04:14.269Z,29.27
2023-01-20T18:06:59.693Z,28.05
2023-01-20T18:09:35.292Z,21.08
2023-01-20T18:12:16.171Z,27.63
2023-01-20T18:15:00.125Z,25.58
2023-01-20T18:17:35.638Z,26.25
2023-01-20T18:20:19.514Z,23.67
2023-01-20T18:22:52.419Z,21.80
2023-01-20T18:25:24.366Z,21.77
2023-01-20T18:28:13.410Z,22.15
2023-01-20T18:33:23.446Z,25.25
2023-01-20T18:35:58.243Z,26.00
2023-01-20T18:38:36.722Z,28.25
2023-01-20T18:41:12.633Z,28.90
2023-01-20T18:43:50.294Z,28.65
2023-01-20T18:46:23.004Z,25.85
2023-01-20T18:49:01.553Z,23.60
2023-01-20T18:51:38.900Z,21.33
2023-01-20T18:54:14.469Z,24.35
2023-01-20T18:56:50.445Z,22.95
2023-01-20T18:59:23.693Z,23.30
2023-01-20T19:01:59.473Z,22.40
2023-01-20T19:04:38.763Z,20.35
2023-01-20T19:07:18.960Z,23.23
2023-01-20T19:09:54.789Z,20.63
2023-01-20T19:12:31.619Z,21.75
2023-01-20T19:15:17.917Z,21.95
2023-01-20T19:17:54.062Z,21.98
2023-01-20T19:20:40.565Z,19.50
2023-01-20T19:23:18.907Z,18.55
2023-01-20T19:25:59.386Z,21.83
2023-01-20T19:28:39.871Z,21.58
2023-01-20T19:31:12.960Z,23.02
2023-01-20T19:33:55.181Z,23.63
2023-01-20T19:36:38.050Z,30.27
2023-01-20T19:39:17.235Z,26.50
2023-01-20T19:41:55.153Z,23.27
2023-01-20T19:44:33.270Z,22.70
2023-01-20T19:47:14.633Z,20.15
2023-01-20T19:49:53.404Z,20.25
2023-01-20T19:52:33.231Z,19.33
2023-01-20T19:55:12.764Z,24.30
2023-01-20T19:57:45.635Z,25.23
2023-01-20T20:00:21.738Z,22.88
2023-01-20T20:02:55.817Z,23.75
2023-01-20T20:05:33.597Z,33.72
2023-01-20T20:08:11.743Z,30.83
2023-01-20T20:10:48.357Z,39.33
2023-01-20T20:13:31.067Z,30.58
2023-01-20T20:16:08.308Z,25.10
2023-01-20T20:18:42.997Z,27.13
2023-01-20T20:21:27.775Z,29.98
2023-01-20T20:24:07.056Z,23.67
2023-01-20T20:26:47.566Z,22.58
2023-01-20T20:29:35.207Z,21.95
2023-01-20T20:32:20.607Z,23.75
2023-01-20T20:34:58.708Z,24.42
2023-01-20T20:37:40.262Z,25.42
2023-01-20T20:40:13.970Z,26.48
2023-01-20T20:42:54.618Z,26.58
2023-01-20T20:45:36.415Z,27.40
2023-01-20T20:48:11.967Z,26.20
2023-01-20T20:50:49.617Z,25.38
2023-01-20T20:53:32.721Z,27.67
2023-01-20T20:56:15.818Z,23.75
2023-01-20T20:59:02.329Z,25.40
2023-01-20T21:01:43.550Z,24.55
2023-01-20T21:04:21.962Z,25.00
2023-01-20T21:06:57.645Z,34.05
2023-01-20T21:09:38.319Z,34.60
2023-01-20T21:12:20.422Z,31.60
2023-01-20T21:15:01.204Z,33.60
2023-01-20T21:17:42.052Z,32.45
2023-01-20T21:20:21.794Z,29.33
2023-01-20T21:23:02.581Z,40.00
2023-01-20T21:25:51.984Z,32.80
2023-01-20T21:28:27.365Z,27.58
2023-01-20T21:31:02.684Z,30.55
2023-01-20T21:33:40.440Z,37.30
2023-01-20T21:36:22.022Z,35.97
2023-01-20T21:39:05.939Z,53.50
2023-01-20T21:41:40.930Z,38.65
2023-01-20T21:44:36.386Z,32.67
2023-01-20T21:47:14.688Z,33.60
2023-01-20T21:50:16.198Z,29.42
2023-01-20T21:52:56.308Z,31.02
2023-01-20T21:55:33.790Z,28.92
2023-01-20T21:58:14.271Z,27.55
2023-01-20T22:00:49.597Z,29.85
2023-01-20T22:03:28.544Z,29.40
2023-01-20T22:06:20.097Z,29.63
2023-01-20T22:09:03.563Z,29.63
2023-01-20T22:11:44.681Z,28.50
2023-01-20T22:14:22.512Z,28.48
2023-01-20T22:17:00.413Z,28.00
2023-01-20T22:19:38.552Z,27.23
2023-01-20T22:22:24.832Z,27.17
2023-01-20T22:25:04.887Z,27.17
2023-01-20T22:27:48.538Z,33.03
2023-01-20T22:30:23.739Z,36.15
2023-01-20T22:32:58.969Z,53.05
2023-01-20T22:35:33.591Z,39.60
2023-01-20T22:38:14.843Z,33.50
2023-01-20T22:40:58.129Z,30.73
2023-01-20T22:43:38.815Z,29.63
2023-01-20T22:46:20.769Z,31.92
2023-01-20T22:49:05.377Z,28.83
2023-01-20T22:51:57.360Z,29.95
2023-01-20T22:54:39.774Z,29.85
2023-01-20T22:57:24.488Z,32.25
2023-01-20T23:00:04.642Z,31.65
2023-01-20T23:02:41.639Z,31.90
2023-01-20T23:05:21.730Z,33.42
2023-01-20T23:07:56.744Z,31.23
2023-01-20T23:10:46.995Z,31.52
2023-01-20T23:13:29.036Z,30.73
2023-01-20T23:16:10.063Z,31.08
2023-01-20T23:18:45.804Z,31.50
2023-01-20T23:21:29.274Z,31.80
2023-01-20T23:24:10.876Z,29.10
2023-01-20T23:26:49.199Z,29.90
2023-01-20T23:29:29.799Z,29.13
2023-01-20T23:32:10.380Z,29.35
2023-01-20T23:34:54.641Z,28.58
2023-01-20T23:37:33.462Z,29.23
2023-01-20T23:40:17.033Z,28.52
2023-01-20T23:45:28.990Z,26.65
2023-01-20T23:48:07.339Z,27.20
2023-01-20T23:50:45.905Z,30.13
2023-01-20T23:53:24.154Z,28.55
2023-01-20T23:56:16.719Z,29.90
2023-01-20T23:58:52.831Z,29.48
